Sea Rider — WDI2682 — position and weather

sailwx.info

Track history (hours):
 
Tides and Currents Weather Stations Pressure Air Temp Water Temp Dewpoint Dewpoint Depression Visibility Wind Speed Wind Dir Waves Ship Positions

Sea Rider

Owner: Versaggi Shrimp Corp, Tampa, FL. More information available from US FCC via Universal Licensing System and Coast Guard Vessel Documentation Center.

Last reported at 2018-May-11 14:20 UTC. Time now 2018-Jun-25 10:10 UTC.
Position N 27°12' W 082°47'.
Warning: this ship's position is 44 days out of date.

MMSI: 367680650.

Date/timePositionNaut miles runAvg speedWind from/ knotsBaromVisibWave heightAir tempDewpointWater temp
2018-May-11 14:20N 27°12' W 082°47'0 0.0
2018-May-11 14:00N 27°12' W 082°47'0 0.0
2018-May-11 13:29N 27°12' W 082°47'0 0.0
2018-May-11 12:59N 27°12' W 082°47'0 0.0
2018-May-11 12:26N 27°12' W 082°47'0 0.0
2018-May-11 11:40N 27°12' W 082°47'0 0.0
2018-May-11 11:26N 27°12' W 082°47'0 0.0
2018-May-11 11:00N 27°12' W 082°47'0 0.0
2018-May-11 10:10N 27°12' W 082°47'0 0.0
2018-May-11 09:59N 27°12' W 082°47'0 0.0
2018-May-11 09:30N 27°12' W 082°47'0 0.0
2018-May-11 08:51N 27°12' W 082°47'34 3.7
2018-May-10 23:33N 27°44' W 082°32'2 8.1
2018-May-10 23:19N 27°46' W 082°31'3 8.2
2018-May-10 23:00N 27°47' W 082°29'4 8.0
2018-May-10 22:31N 27°51' W 082°27'4 7.7
2018-May-10 22:01N 27°55' W 082°26'1 2.2
2018-May-10 21:30N 27°56' W 082°26'  
Track history (hours):
 
Tides and Currents Weather Stations Pressure Air Temp Water Temp Dewpoint Dewpoint Depression Visibility Wind Speed Wind Dir Waves Ship Positions

Sea Rider

Owner: Versaggi Shrimp Corp, Tampa, FL. More information available from US FCC via Universal Licensing System and Coast Guard Vessel Documentation Center.

Last reported at 2018-May-11 14:20 UTC. Time now 2018-Jun-25 10:10 UTC.
Position N 27°12' W 082°47'.
Warning: this ship's position is 44 days out of date.

MMSI: 367680650.

Date/timePositionNaut miles runAvg speedWind from/ knotsBaromVisibWave heightAir tempDewpointWater temp
2018-May-11 14:20N 27°12' W 082°47'0 0.0
2018-May-11 14:00N 27°12' W 082°47'0 0.0
2018-May-11 13:29N 27°12' W 082°47'0 0.0
2018-May-11 12:59N 27°12' W 082°47'0 0.0
2018-May-11 12:26N 27°12' W 082°47'0 0.0
2018-May-11 11:40N 27°12' W 082°47'0 0.0
2018-May-11 11:26N 27°12' W 082°47'0 0.0
2018-May-11 11:00N 27°12' W 082°47'0 0.0
2018-May-11 10:10N 27°12' W 082°47'0 0.0
2018-May-11 09:59N 27°12' W 082°47'0 0.0
2018-May-11 09:30N 27°12' W 082°47'0 0.0
2018-May-11 08:51N 27°12' W 082°47'34 3.7
2018-May-10 23:33N 27°44' W 082°32'2 8.1
2018-May-10 23:19N 27°46' W 082°31'3 8.2
2018-May-10 23:00N 27°47' W 082°29'4 8.0
2018-May-10 22:31N 27°51' W 082°27'4 7.7
2018-May-10 22:01N 27°55' W 082°26'1 2.2
2018-May-10 21:30N 27°56' W 082°26'  

Dump ship's entire track history